createdAt,value
2017-10-28T00:00:30.595Z,9.80
2017-10-28T00:01:31.033Z,9.77
2017-10-28T00:02:30.510Z,9.76
2017-10-28T00:03:30.476Z,9.73
2017-10-28T00:04:30.440Z,9.74
2017-10-28T00:05:30.421Z,9.77
2017-10-28T00:06:30.367Z,9.73
2017-10-28T00:07:30.330Z,9.77
2017-10-28T00:08:30.331Z,9.73
2017-10-28T00:09:30.256Z,9.73
2017-10-28T00:10:30.218Z,9.69
2017-10-28T00:11:30.183Z,9.79
2017-10-28T00:12:30.145Z,9.74
2017-10-28T00:13:30.111Z,9.73
2017-10-28T00:14:30.072Z,9.77
2017-10-28T00:15:30.037Z,9.74
2017-10-28T00:16:29.999Z,9.62
2017-10-28T00:17:29.964Z,9.82
2017-10-28T00:18:29.925Z,9.74
2017-10-28T00:19:29.890Z,9.77
2017-10-28T00:20:29.853Z,9.84
2017-10-28T00:21:29.815Z,9.84
2017-10-28T00:22:29.778Z,9.84
2017-10-28T00:23:29.741Z,9.86
2017-10-28T00:24:29.706Z,9.76
2017-10-28T00:25:29.670Z,9.66
2017-10-28T00:26:29.633Z,9.65
2017-10-28T00:27:29.595Z,9.64
2017-10-28T00:28:29.560Z,9.58
2017-10-28T00:29:29.523Z,9.54
2017-10-28T00:30:29.485Z,9.55
2017-10-28T00:31:29.448Z,9.56
2017-10-28T00:32:29.413Z,9.61
2017-10-28T00:33:29.998Z,9.54
2017-10-28T00:34:29.337Z,9.61
2017-10-28T00:35:29.303Z,9.56
2017-10-28T00:36:29.265Z,9.56
2017-10-28T00:37:29.230Z,9.55
2017-10-28T00:38:29.191Z,9.56
2017-10-28T00:39:29.156Z,9.58
2017-10-28T00:40:29.118Z,9.69
2017-10-28T00:41:29.079Z,9.68
2017-10-28T00:42:29.045Z,9.62
2017-10-28T00:43:29.008Z,9.66
2017-10-28T00:44:28.971Z,9.69
2017-10-28T00:45:28.934Z,9.82
2017-10-28T00:46:28.897Z,9.76
2017-10-28T00:47:28.859Z,9.80
2017-10-28T00:48:28.824Z,9.87
2017-10-28T00:49:28.787Z,9.84
2017-10-28T00:50:28.751Z,9.84
2017-10-28T00:51:28.713Z,9.94
2017-10-28T00:52:28.676Z,9.95
2017-10-28T00:53:28.659Z,9.86
2017-10-28T00:54:28.603Z,9.97
2017-10-28T00:55:28.568Z,9.97
2017-10-28T00:56:28.530Z,9.94
2017-10-28T00:57:28.491Z,9.97
2017-10-28T00:58:28.456Z,9.91
2017-10-28T00:59:28.419Z,10.04
2017-10-28T01:00:28.382Z,9.94
2017-10-28T01:01:28.345Z,9.95
2017-10-28T01:02:28.311Z,9.94
2017-10-28T01:03:28.271Z,9.83
2017-10-28T01:04:28.237Z,9.83
2017-10-28T01:05:28.202Z,9.80
2017-10-28T01:06:28.163Z,9.80
2017-10-28T01:07:28.127Z,9.65
2017-10-28T01:08:28.090Z,9.72
2017-10-28T01:09:28.053Z,9.74
2017-10-28T01:10:28.016Z,9.73
2017-10-28T01:11:27.978Z,9.68
2017-10-28T01:12:27.944Z,9.79
2017-10-28T01:13:27.905Z,9.66
2017-10-28T01:14:27.869Z,9.76
2017-10-28T01:15:27.833Z,9.69
2017-10-28T01:16:27.796Z,9.82
2017-10-28T01:17:27.759Z,9.86
2017-10-28T01:18:27.722Z,9.86
2017-10-28T01:19:27.690Z,9.82
2017-10-28T01:20:27.650Z,9.98
2017-10-28T01:21:27.615Z,9.98
2017-10-28T01:22:27.577Z,9.94
2017-10-28T01:23:27.540Z,9.97
2017-10-28T01:24:27.503Z,10.01
2017-10-28T01:25:27.468Z,10.01
2017-10-28T01:26:27.429Z,9.99
2017-10-28T01:27:27.392Z,10.04
2017-10-28T01:28:27.356Z,9.94
2017-10-28T01:29:27.319Z,9.97
2017-10-28T01:30:27.281Z,10.12
2017-10-28T01:31:27.244Z,9.97
2017-10-28T01:32:27.210Z,9.98
2017-10-28T01:33:27.177Z,9.97
2017-10-28T01:34:27.137Z,9.97
2017-10-28T01:35:27.101Z,9.97
2017-10-28T01:36:27.065Z,10.01
2017-10-28T01:37:27.028Z,10.10
2017-10-28T01:38:26.988Z,9.94
2017-10-28T01:39:26.954Z,9.99
2017-10-28T01:40:26.919Z,9.99
2017-10-28T01:41:26.880Z,9.94
2017-10-28T01:42:26.843Z,10.01
2017-10-28T01:43:26.807Z,10.04
2017-10-28T01:44:26.772Z,10.01
2017-10-28T01:45:26.732Z,9.99
2017-10-28T01:46:26.699Z,10.07
2017-10-28T01:47:26.661Z,10.07
2017-10-28T01:48:26.626Z,10.09
2017-10-28T01:49:26.587Z,10.12
2017-10-28T01:50:26.551Z,10.12
2017-10-28T01:51:26.517Z,10.05
2017-10-28T01:52:26.498Z,10.07
2017-10-28T01:53:26.442Z,10.10
2017-10-28T01:54:26.409Z,10.07
2017-10-28T01:55:26.371Z,10.15
2017-10-28T01:56:26.335Z,10.12
2017-10-28T01:57:26.296Z,10.20
2017-10-28T01:58:26.263Z,10.10
2017-10-28T01:59:26.224Z,10.17
2017-10-28T02:00:26.189Z,10.07
2017-10-28T02:01:26.150Z,10.13
2017-10-28T02:02:26.114Z,10.13
2017-10-28T02:03:26.074Z,10.12
2017-10-28T02:04:26.042Z,10.12
2017-10-28T02:05:26.013Z,10.10
2017-10-28T02:06:25.968Z,10.05
2017-10-28T02:07:25.931Z,10.07
2017-10-28T02:08:25.894Z,10.10
2017-10-28T02:09:25.858Z,10.09
2017-10-28T02:10:25.822Z,10.05
2017-10-28T02:11:25.786Z,10.05
2017-10-28T02:12:25.749Z,10.09
2017-10-28T02:13:25.716Z,10.04
2017-10-28T02:14:25.676Z,9.99
2017-10-28T02:15:25.638Z,9.95
2017-10-28T02:16:25.603Z,9.97
2017-10-28T02:17:25.567Z,9.98
2017-10-28T02:18:25.529Z,9.97
2017-10-28T02:19:25.493Z,9.94
2017-10-28T02:20:25.456Z,9.89
2017-10-28T02:21:25.421Z,9.97
2017-10-28T02:22:25.382Z,9.89
2017-10-28T02:23:25.346Z,9.94
2017-10-28T02:24:25.310Z,10.01
2017-10-28T02:25:25.272Z,10.10
2017-10-28T02:26:25.239Z,10.09
2017-10-28T02:27:25.197Z,10.09
2017-10-28T02:28:25.163Z,9.97
2017-10-28T02:29:25.126Z,10.07
2017-10-28T02:30:25.091Z,9.99
2017-10-28T02:31:25.411Z,10.07
2017-10-28T02:32:25.016Z,9.97
2017-10-28T02:33:24.982Z,10.09
2017-10-28T02:34:24.943Z,10.07
2017-10-28T02:35:24.908Z,10.07
2017-10-28T02:36:24.869Z,10.04
2017-10-28T02:37:24.832Z,10.12
2017-10-28T02:38:24.797Z,10.09
2017-10-28T02:39:24.761Z,10.10
2017-10-28T02:40:24.726Z,10.10
2017-10-28T02:41:24.701Z,10.07
2017-10-28T02:42:24.659Z,10.15
2017-10-28T02:43:24.615Z,10.22
2017-10-28T02:44:24.578Z,10.23
2017-10-28T02:45:24.541Z,10.33
2017-10-28T02:46:24.507Z,10.20
2017-10-28T02:47:24.469Z,10.23
2017-10-28T02:48:24.433Z,10.26
2017-10-28T02:49:24.394Z,10.41
2017-10-28T02:50:24.358Z,10.38
2017-10-28T02:51:24.322Z,10.37
2017-10-28T02:52:24.286Z,10.31
2017-10-28T02:53:24.247Z,10.38
2017-10-28T02:54:24.213Z,10.37
2017-10-28T02:55:24.174Z,10.40
2017-10-28T02:56:24.142Z,10.35
2017-10-28T02:57:24.101Z,10.38
2017-10-28T02:58:24.070Z,10.30
2017-10-28T02:59:24.036Z,10.37
2017-10-28T03:00:23.997Z,10.35
2017-10-28T03:01:23.959Z,10.31
2017-10-28T03:02:23.921Z,10.28
2017-10-28T03:03:23.884Z,10.33
2017-10-28T03:04:23.849Z,10.38
2017-10-28T03:05:23.810Z,10.31
2017-10-28T03:06:23.775Z,10.38
2017-10-28T03:07:23.740Z,10.23
2017-10-28T03:08:23.701Z,10.30
2017-10-28T03:09:23.664Z,10.30
2017-10-28T03:10:23.629Z,10.33
2017-10-28T03:11:23.602Z,10.22
2017-10-28T03:12:23.557Z,10.22
2017-10-28T03:13:23.521Z,10.15
2017-10-28T03:14:23.484Z,10.15
2017-10-28T03:15:23.449Z,10.09
2017-10-28T03:16:23.412Z,10.12
2017-10-28T03:17:23.373Z,10.04
2017-10-28T03:18:23.339Z,9.94
2017-10-28T03:19:23.301Z,9.97
2017-10-28T03:20:23.266Z,9.94
2017-10-28T03:21:23.228Z,9.95
2017-10-28T03:22:23.194Z,9.94
2017-10-28T03:23:23.160Z,9.98
2017-10-28T03:24:23.121Z,9.94
2017-10-28T03:25:23.082Z,9.95
2017-10-28T03:26:23.046Z,9.94
2017-10-28T03:27:23.009Z,9.91
2017-10-28T03:28:22.974Z,9.98
2017-10-28T03:29:22.938Z,9.97
2017-10-28T03:30:22.902Z,9.89
2017-10-28T03:31:22.864Z,9.98
2017-10-28T03:32:22.828Z,9.91
2017-10-28T03:33:22.790Z,10.04
2017-10-28T03:34:22.753Z,10.07
2017-10-28T03:35:22.718Z,10.07
2017-10-28T03:36:22.683Z,10.10
2017-10-28T03:37:22.644Z,9.97
2017-10-28T03:38:22.608Z,9.95
2017-10-28T03:39:22.571Z,9.97
2017-10-28T03:40:22.535Z,9.95
2017-10-28T03:41:22.497Z,9.97
2017-10-28T03:42:22.463Z,9.92
2017-10-28T03:43:22.426Z,9.84
2017-10-28T03:44:22.388Z,9.82
2017-10-28T03:45:22.350Z,9.84
2017-10-28T03:46:22.315Z,9.76
2017-10-28T03:47:22.277Z,9.73
2017-10-28T03:48:22.242Z,9.80
2017-10-28T03:49:22.204Z,9.74
2017-10-28T03:50:22.167Z,9.66
2017-10-28T03:51:22.133Z,9.69
2017-10-28T03:52:22.097Z,9.66
2017-10-28T03:53:22.057Z,9.69
2017-10-28T03:54:22.022Z,9.68
2017-10-28T03:55:21.986Z,9.68
2017-10-28T03:56:21.949Z,9.74
2017-10-28T03:57:21.912Z,9.55
2017-10-28T03:58:21.872Z,9.64
2017-10-28T03:59:21.839Z,9.54
2017-10-28T04:00:21.802Z,9.61
2017-10-28T04:01:21.763Z,9.41
2017-10-28T04:02:21.727Z,9.44
2017-10-28T04:03:21.691Z,9.44
2017-10-28T04:04:21.654Z,9.46
2017-10-28T04:05:21.614Z,9.40
2017-10-28T04:06:21.581Z,9.41
2017-10-28T04:07:21.544Z,9.46
2017-10-28T04:08:21.507Z,9.37
2017-10-28T04:09:21.469Z,9.39
2017-10-28T04:10:21.433Z,9.32
2017-10-28T04:11:21.397Z,9.25
2017-10-28T04:12:21.359Z,9.31
2017-10-28T04:13:21.324Z,9.22
2017-10-28T04:14:21.286Z,9.21
2017-10-28T04:15:21.251Z,9.23
2017-10-28T04:16:21.211Z,9.23
2017-10-28T04:17:21.179Z,9.21
2017-10-28T04:18:21.137Z,9.23
2017-10-28T04:19:21.101Z,9.21
2017-10-28T04:20:21.066Z,9.25
2017-10-28T04:21:21.027Z,9.36
2017-10-28T04:22:20.989Z,9.37
2017-10-28T04:23:20.955Z,9.37
2017-10-28T04:24:20.917Z,9.40
2017-10-28T04:25:20.879Z,9.43
2017-10-28T04:26:20.909Z,9.47
2017-10-28T04:27:20.806Z,9.47
2017-10-28T04:28:20.769Z,9.48
2017-10-28T04:29:20.730Z,9.48
2017-10-28T04:30:20.696Z,9.51
2017-10-28T04:31:20.732Z,9.55
2017-10-28T04:32:20.627Z,9.46
2017-10-28T04:33:20.582Z,9.44
2017-10-28T04:34:20.547Z,9.48
2017-10-28T04:35:20.507Z,9.46
2017-10-28T04:36:20.472Z,9.46
2017-10-28T04:37:20.433Z,9.39
2017-10-28T04:38:20.397Z,9.36
2017-10-28T04:39:20.359Z,9.40
2017-10-28T04:40:20.324Z,9.39
2017-10-28T04:41:20.288Z,9.32
2017-10-28T04:42:20.257Z,9.23
2017-10-28T04:43:20.212Z,9.21
2017-10-28T04:44:20.174Z,9.22
2017-10-28T04:45:20.137Z,9.22
2017-10-28T04:46:20.096Z,9.25
2017-10-28T04:47:20.063Z,9.21
2017-10-28T04:48:20.026Z,9.13
2017-10-28T04:49:19.989Z,9.18
2017-10-28T04:50:19.951Z,9.23
2017-10-28T04:51:19.913Z,9.13
2017-10-28T04:52:19.878Z,9.16
2017-10-28T04:53:19.841Z,9.19
2017-10-28T04:54:19.803Z,9.18
2017-10-28T04:55:19.766Z,9.19
2017-10-28T04:56:19.728Z,9.14
2017-10-28T04:57:19.690Z,9.18
2017-10-28T04:58:19.653Z,9.10
2017-10-28T04:59:19.615Z,9.14
2017-10-28T05:00:19.580Z,9.14
2017-10-28T05:01:19.540Z,9.21
2017-10-28T05:02:19.506Z,9.18
2017-10-28T05:03:19.468Z,9.19
2017-10-28T05:04:19.430Z,9.18
2017-10-28T05:05:19.391Z,9.16
2017-10-28T05:06:19.356Z,9.10
2017-10-28T05:07:19.319Z,8.95
2017-10-28T05:08:19.283Z,9.02
2017-10-28T05:09:19.243Z,9.02
2017-10-28T05:10:19.206Z,8.95
2017-10-28T05:11:19.168Z,8.99
2017-10-28T05:12:19.134Z,8.97
2017-10-28T05:13:19.095Z,9.11
2017-10-28T05:14:19.057Z,9.14
2017-10-28T05:15:19.020Z,9.00
2017-10-28T05:16:18.982Z,9.00
2017-10-28T05:17:18.945Z,8.97
2017-10-28T05:18:18.907Z,9.02
2017-10-28T05:19:18.877Z,8.94
2017-10-28T05:20:18.832Z,8.82
2017-10-28T05:21:18.794Z,8.92
2017-10-28T05:22:18.759Z,8.87
2017-10-28T05:23:18.721Z,8.89
2017-10-28T05:24:18.683Z,8.82
2017-10-28T05:25:18.646Z,8.76
2017-10-28T05:26:18.607Z,8.74
2017-10-28T05:27:18.570Z,8.78
2017-10-28T05:28:18.534Z,8.84
2017-10-28T05:29:18.494Z,8.76
2017-10-28T05:30:18.459Z,8.94
2017-10-28T05:31:18.422Z,8.99
2017-10-28T05:32:18.384Z,9.06
2017-10-28T05:33:18.345Z,9.04
2017-10-28T05:34:18.309Z,9.19
2017-10-28T05:35:18.272Z,9.19
2017-10-28T05:36:18.234Z,9.23
2017-10-28T05:37:18.195Z,9.23
2017-10-28T05:38:18.160Z,9.28
2017-10-28T05:39:18.125Z,9.19
2017-10-28T05:40:18.089Z,9.21
2017-10-28T05:41:18.049Z,9.22
2017-10-28T05:42:18.010Z,9.22
2017-10-28T05:43:17.972Z,9.23
2017-10-28T05:44:17.937Z,9.18
2017-10-28T05:45:17.896Z,9.18
2017-10-28T05:46:17.858Z,9.14
2017-10-28T05:47:17.828Z,9.02
2017-10-28T05:48:17.785Z,9.04
2017-10-28T05:49:17.747Z,9.03
2017-10-28T05:50:17.715Z,9.00
2017-10-28T05:51:17.672Z,8.97
2017-10-28T05:52:17.635Z,8.99
2017-10-28T05:53:17.597Z,9.16
2017-10-28T05:54:17.561Z,9.13
2017-10-28T05:55:17.523Z,8.99
2017-10-28T05:56:17.487Z,9.11
2017-10-28T05:57:17.450Z,9.10
2017-10-28T05:58:17.409Z,9.10
2017-10-28T05:59:17.372Z,9.25
2017-10-28T06:00:17.335Z,9.18
2017-10-28T06:01:17.298Z,9.11
2017-10-28T06:02:17.262Z,9.03
2017-10-28T06:03:17.223Z,9.00
2017-10-28T06:04:17.190Z,8.95
2017-10-28T06:05:17.149Z,8.99
2017-10-28T06:06:17.111Z,8.97
2017-10-28T06:07:17.074Z,8.85
2017-10-28T06:08:17.037Z,8.94
2017-10-28T06:09:17.006Z,8.78
2017-10-28T06:10:16.961Z,8.82
2017-10-28T06:11:16.926Z,8.79
2017-10-28T06:12:16.886Z,8.85
2017-10-28T06:13:16.849Z,8.84
2017-10-28T06:14:16.812Z,8.82
2017-10-28T06:15:16.772Z,8.87
2017-10-28T06:16:16.736Z,8.73
2017-10-28T06:17:16.699Z,8.74
2017-10-28T06:18:16.661Z,8.79
2017-10-28T06:19:16.625Z,8.78
2017-10-28T06:20:16.586Z,8.74
2017-10-28T06:21:16.549Z,8.79
2017-10-28T06:22:16.513Z,8.74
2017-10-28T06:23:16.475Z,8.67
2017-10-28T06:24:16.438Z,8.81
2017-10-28T06:25:16.399Z,8.74
2017-10-28T06:26:16.363Z,8.88
2017-10-28T06:27:16.325Z,8.78
2017-10-28T06:28:16.288Z,8.85
2017-10-28T06:29:16.250Z,8.92
2017-10-28T06:30:16.213Z,9.04
2017-10-28T06:31:16.176Z,9.02
2017-10-28T06:32:16.140Z,8.95
2017-10-28T06:33:16.099Z,9.02
2017-10-28T06:34:16.063Z,8.99
2017-10-28T06:35:16.027Z,9.00
2017-10-28T06:36:15.988Z,8.99
2017-10-28T06:37:15.957Z,8.99
2017-10-28T06:38:15.915Z,8.99
2017-10-28T06:39:15.878Z,8.95
2017-10-28T06:40:15.839Z,8.95
2017-10-28T06:41:15.801Z,9.02
2017-10-28T06:42:15.765Z,9.04
2017-10-28T06:43:15.726Z,8.95
2017-10-28T06:44:15.690Z,9.10
2017-10-28T06:45:15.648Z,9.25
2017-10-28T06:46:15.615Z,9.04
2017-10-28T06:47:15.579Z,9.19
2017-10-28T06:48:15.538Z,9.19
2017-10-28T06:49:15.500Z,9.26
2017-10-28T06:50:15.464Z,9.23
2017-10-28T06:51:15.428Z,9.26
2017-10-28T06:52:15.395Z,9.22
2017-10-28T06:53:15.352Z,9.19
2017-10-28T06:54:15.316Z,9.25
2017-10-28T06:55:15.281Z,9.31
2017-10-28T06:56:15.242Z,9.26
2017-10-28T06:57:15.202Z,9.22
2017-10-28T06:58:15.166Z,9.26
2017-10-28T06:59:15.128Z,9.28
2017-10-28T07:00:15.092Z,9.31
2017-10-28T07:01:15.052Z,9.37
2017-10-28T07:02:15.018Z,9.31
2017-10-28T07:03:14.992Z,9.37
2017-10-28T07:04:14.945Z,9.41
2017-10-28T07:05:14.905Z,9.37
2017-10-28T07:06:14.872Z,9.39
2017-10-28T07:07:14.838Z,9.44
2017-10-28T07:08:14.791Z,9.46
2017-10-28T07:09:14.818Z,9.46
2017-10-28T07:10:14.719Z,9.48
2017-10-28T07:11:14.683Z,9.58
2017-10-28T07:12:14.646Z,9.48
2017-10-28T07:13:14.608Z,9.55
2017-10-28T07:14:14.570Z,9.54
2017-10-28T07:15:14.532Z,9.56
2017-10-28T07:16:14.496Z,9.58
2017-10-28T07:17:14.460Z,9.55
2017-10-28T07:18:14.431Z,9.56
2017-10-28T07:19:14.393Z,9.56
2017-10-28T07:20:14.351Z,9.58
2017-10-28T07:21:14.311Z,9.64
2017-10-28T07:22:14.276Z,9.68
2017-10-28T07:23:14.259Z,9.64
2017-10-28T07:24:14.203Z,9.73
2017-10-28T07:25:14.163Z,9.65
2017-10-28T07:26:14.128Z,9.64
2017-10-28T07:27:14.092Z,9.58
2017-10-28T07:28:14.055Z,9.62
2017-10-28T07:29:14.017Z,9.64
2017-10-28T07:30:13.981Z,9.65
2017-10-28T07:31:13.943Z,9.66
2017-10-28T07:32:13.907Z,9.72
2017-10-28T07:33:13.870Z,9.72
2017-10-28T07:34:13.837Z,9.66
2017-10-28T07:35:13.802Z,9.74
2017-10-28T07:36:13.760Z,9.72
2017-10-28T07:37:13.723Z,9.72
2017-10-28T07:38:13.685Z,9.86
2017-10-28T07:39:13.648Z,9.86
2017-10-28T07:40:13.613Z,9.86
2017-10-28T07:41:13.575Z,9.83
2017-10-28T07:42:13.536Z,9.86
2017-10-28T07:43:13.502Z,9.87
2017-10-28T07:44:13.465Z,9.87
2017-10-28T07:45:13.427Z,9.89
2017-10-28T07:46:13.391Z,9.89
2017-10-28T07:47:13.356Z,9.86
2017-10-28T07:48:13.317Z,9.91
2017-10-28T07:49:13.282Z,9.95
2017-10-28T07:50:13.245Z,9.98
2017-10-28T07:51:13.209Z,10.07
2017-10-28T07:52:13.173Z,10.02
2017-10-28T07:53:13.134Z,10.12
2017-10-28T07:54:13.100Z,10.12
2017-10-28T07:55:13.064Z,10.07
2017-10-28T07:56:13.028Z,10.15
2017-10-28T07:57:12.989Z,10.20
2017-10-28T07:58:12.953Z,10.16
2017-10-28T07:59:12.918Z,10.16
2017-10-28T08:00:12.881Z,10.19
2017-10-28T08:01:12.845Z,10.16
2017-10-28T08:02:12.808Z,10.16
2017-10-28T08:03:12.772Z,10.25
2017-10-28T08:04:12.735Z,10.17
2017-10-28T08:05:12.698Z,10.22
2017-10-28T08:06:12.662Z,10.20
2017-10-28T08:07:12.627Z,10.26
2017-10-28T08:08:12.590Z,10.22
2017-10-28T08:09:12.552Z,10.26
2017-10-28T08:10:13.136Z,10.30
2017-10-28T08:11:12.481Z,10.26
2017-10-28T08:12:12.445Z,10.25
2017-10-28T08:13:12.409Z,10.33
2017-10-28T08:14:12.372Z,10.38
2017-10-28T08:15:12.331Z,10.35
2017-10-28T08:16:12.300Z,10.44
2017-10-28T08:17:12.263Z,10.38
2017-10-28T08:18:12.227Z,10.46
2017-10-28T08:19:12.190Z,10.49
2017-10-28T08:20:12.169Z,10.48
2017-10-28T08:21:12.449Z,10.51
2017-10-28T08:22:12.082Z,10.54
2017-10-28T08:23:12.046Z,10.59
2017-10-28T08:24:12.011Z,10.60
2017-10-28T08:25:11.974Z,10.54
2017-10-28T08:26:11.950Z,10.57
2017-10-28T08:27:11.903Z,10.59
2017-10-28T08:28:11.866Z,10.61
2017-10-28T08:29:11.852Z,10.60
2017-10-28T08:30:11.792Z,10.57
2017-10-28T08:31:11.760Z,10.51
2017-10-28T08:32:11.723Z,10.53
2017-10-28T08:33:11.687Z,10.49
2017-10-28T08:34:11.653Z,10.51
2017-10-28T08:35:11.615Z,10.44
2017-10-28T08:36:11.578Z,10.51
2017-10-28T08:37:11.543Z,10.41
2017-10-28T08:38:11.507Z,10.44
2017-10-28T08:39:11.470Z,10.51
2017-10-28T08:40:11.435Z,10.51
2017-10-28T08:41:11.398Z,10.60
2017-10-28T08:42:11.363Z,10.46
2017-10-28T08:43:11.326Z,10.57
2017-10-28T08:44:11.291Z,10.59
2017-10-28T08:45:11.255Z,10.60
2017-10-28T08:46:11.220Z,10.69
2017-10-28T08:47:11.186Z,10.71
2017-10-28T08:48:11.153Z,10.75
2017-10-28T08:49:11.111Z,10.72
2017-10-28T08:50:11.075Z,10.72
2017-10-28T08:51:11.039Z,10.86
2017-10-28T08:52:11.006Z,10.87
2017-10-28T08:53:10.968Z,10.86
2017-10-28T08:54:10.930Z,10.87
2017-10-28T08:55:10.898Z,10.92
2017-10-28T08:56:10.864Z,11.07
2017-10-28T08:57:10.826Z,11.23
2017-10-28T08:58:10.786Z,11.29
2017-10-28T08:59:10.757Z,11.43
2017-10-28T09:00:10.722Z,11.40
2017-10-28T09:01:10.687Z,11.23
2017-10-28T09:02:10.651Z,11.12
2017-10-28T09:03:10.618Z,11.14
2017-10-28T09:04:10.583Z,11.15
2017-10-28T09:05:10.547Z,11.14
2017-10-28T09:06:10.509Z,11.05
2017-10-28T09:07:10.480Z,11.07
2017-10-28T09:08:10.459Z,11.05
2017-10-28T09:09:10.471Z,11.10
2017-10-28T09:10:10.371Z,10.96
2017-10-28T09:11:10.338Z,10.96
2017-10-28T09:12:10.302Z,10.96
2017-10-28T09:13:10.263Z,10.81
2017-10-28T09:14:10.232Z,10.89
2017-10-28T09:15:10.199Z,10.89
2017-10-28T09:16:10.157Z,10.89
2017-10-28T09:17:10.127Z,10.86
2017-10-28T09:18:10.111Z,10.87
2017-10-28T09:19:10.053Z,10.89
2017-10-28T09:20:10.018Z,10.90
2017-10-28T09:21:10.442Z,10.93
2017-10-28T09:22:09.946Z,10.94
2017-10-28T09:23:09.910Z,10.92
2017-10-28T09:24:09.877Z,10.89
2017-10-28T09:25:09.837Z,11.00
2017-10-28T09:26:09.804Z,11.02
2017-10-28T09:27:09.769Z,11.00
2017-10-28T09:28:09.732Z,11.05
2017-10-28T09:29:09.696Z,11.04
2017-10-28T09:30:09.659Z,10.97
2017-10-28T09:31:09.627Z,10.99
2017-10-28T09:32:09.590Z,10.97
2017-10-28T09:33:09.553Z,11.00
2017-10-28T09:34:09.520Z,11.05
2017-10-28T09:35:09.482Z,11.07
2017-10-28T09:36:09.448Z,11.10
2017-10-28T09:37:09.421Z,11.04
2017-10-28T09:38:09.381Z,11.07
2017-10-28T09:39:09.340Z,11.11
2017-10-28T09:40:09.305Z,11.05
2017-10-28T09:41:09.264Z,11.11
2017-10-28T09:42:09.235Z,11.26
2017-10-28T09:43:09.199Z,11.23
2017-10-28T09:44:09.165Z,11.30
2017-10-28T09:45:09.129Z,11.30
2017-10-28T09:46:09.096Z,11.36
2017-10-28T09:47:09.056Z,11.43
2017-10-28T09:48:09.023Z,11.36
2017-10-28T09:49:09.347Z,11.37
2017-10-28T09:50:08.951Z,11.36
2017-10-28T09:51:08.917Z,11.32
2017-10-28T09:52:08.880Z,11.40
2017-10-28T09:53:08.844Z,11.35
2017-10-28T09:54:08.809Z,11.35
2017-10-28T09:55:08.775Z,11.36
2017-10-28T09:56:08.741Z,11.35
2017-10-28T09:57:08.703Z,11.36
2017-10-28T09:58:08.670Z,11.40
2017-10-28T09:59:08.634Z,11.26
2017-10-28T10:00:08.600Z,11.33
2017-10-28T10:01:08.566Z,11.25
2017-10-28T10:02:08.531Z,11.18
2017-10-28T10:03:08.493Z,11.22
2017-10-28T10:04:08.458Z,11.27
2017-10-28T10:05:08.422Z,11.17
2017-10-28T10:06:08.388Z,11.25
2017-10-28T10:07:08.351Z,11.23
2017-10-28T10:08:08.317Z,11.22
2017-10-28T10:09:08.281Z,11.23
2017-10-28T10:10:08.245Z,11.17
2017-10-28T10:11:08.211Z,11.25
2017-10-28T10:12:08.177Z,11.26
2017-10-28T10:13:08.140Z,11.19
2017-10-28T10:14:08.105Z,11.30
2017-10-28T10:15:08.067Z,11.18
2017-10-28T10:16:08.033Z,11.23
2017-10-28T10:17:07.996Z,11.23
2017-10-28T10:18:07.962Z,11.23
2017-10-28T10:19:07.928Z,11.22
2017-10-28T10:20:07.892Z,11.17
2017-10-28T10:21:07.855Z,11.07
2017-10-28T10:22:07.823Z,11.11
2017-10-28T10:23:07.786Z,11.11
2017-10-28T10:24:07.749Z,11.12
2017-10-28T10:25:07.714Z,11.12
2017-10-28T10:26:07.679Z,11.18
2017-10-28T10:27:07.644Z,11.17
2017-10-28T10:28:07.608Z,11.14
2017-10-28T10:29:07.574Z,11.26
2017-10-28T10:30:07.645Z,11.25
2017-10-28T10:31:07.502Z,11.35
2017-10-28T10:32:07.466Z,11.25
2017-10-28T10:33:07.431Z,11.26
2017-10-28T10:34:07.394Z,11.27
2017-10-28T10:35:07.359Z,11.35
2017-10-28T10:36:07.325Z,11.33
2017-10-28T10:37:07.293Z,11.40
2017-10-28T10:38:07.253Z,11.41
2017-10-28T10:39:07.219Z,11.33
2017-10-28T10:40:07.184Z,11.36
2017-10-28T10:41:07.148Z,11.44
2017-10-28T10:42:07.113Z,11.27
2017-10-28T10:43:07.080Z,11.36
2017-10-28T10:44:07.042Z,11.33
2017-10-28T10:45:07.005Z,11.37
2017-10-28T10:46:06.969Z,11.29
2017-10-28T10:47:06.937Z,11.30
2017-10-28T10:48:06.901Z,11.26
2017-10-28T10:49:06.865Z,11.27
2017-10-28T10:50:06.829Z,11.18
2017-10-28T10:51:06.797Z,11.30
2017-10-28T10:52:06.758Z,11.35
2017-10-28T10:53:06.724Z,11.22
2017-10-28T10:54:06.689Z,11.22
2017-10-28T10:55:06.653Z,11.26
2017-10-28T10:56:06.616Z,11.22
2017-10-28T10:57:06.582Z,11.22
2017-10-28T10:58:06.546Z,11.23
2017-10-28T10:59:06.510Z,11.22
2017-10-28T11:00:06.477Z,11.18
2017-10-28T11:01:06.439Z,11.19
2017-10-28T11:02:06.406Z,11.19
2017-10-28T11:03:06.369Z,11.19
2017-10-28T11:04:06.335Z,11.23
2017-10-28T11:05:06.298Z,11.22
2017-10-28T11:06:06.264Z,11.19
2017-10-28T11:07:06.228Z,11.18
2017-10-28T11:08:06.192Z,11.19
2017-10-28T11:09:06.177Z,11.17
2017-10-28T11:10:06.121Z,11.25
2017-10-28T11:11:06.086Z,11.23
2017-10-28T11:12:06.051Z,11.26
2017-10-28T11:13:06.014Z,11.23
2017-10-28T11:14:05.977Z,11.23
2017-10-28T11:15:05.945Z,11.25
2017-10-28T11:16:05.907Z,11.22
2017-10-28T11:17:05.872Z,11.18
2017-10-28T11:18:05.844Z,11.17
2017-10-28T11:19:05.805Z,11.25
2017-10-28T11:20:05.769Z,11.25
2017-10-28T11:21:05.730Z,11.23
2017-10-28T11:22:05.693Z,11.25
2017-10-28T11:23:05.660Z,11.25
2017-10-28T11:24:05.625Z,11.25
2017-10-28T11:25:05.855Z,11.17
2017-10-28T11:26:05.552Z,11.15
2017-10-28T11:27:05.517Z,11.19
2017-10-28T11:28:05.481Z,11.08
2017-10-28T11:29:05.445Z,11.08
2017-10-28T11:30:05.409Z,11.17
2017-10-28T11:31:05.375Z,11.08
2017-10-28T11:32:05.340Z,11.05
2017-10-28T11:33:05.304Z,11.10
2017-10-28T11:34:05.270Z,11.10
2017-10-28T11:35:05.232Z,11.12
2017-10-28T11:36:05.197Z,11.12
2017-10-28T11:37:05.160Z,11.07
2017-10-28T11:38:05.125Z,11.05
2017-10-28T11:39:05.092Z,11.14
2017-10-28T11:40:05.053Z,11.12
2017-10-28T11:41:05.017Z,11.04
2017-10-28T11:42:04.982Z,11.02
2017-10-28T11:43:04.947Z,11.05
2017-10-28T11:44:04.910Z,10.97
2017-10-28T11:45:04.885Z,11.05
2017-10-28T11:46:04.846Z,11.04
2017-10-28T11:47:04.805Z,10.99
2017-10-28T11:48:04.768Z,11.08
2017-10-28T11:49:04.730Z,11.02
2017-10-28T11:50:04.694Z,11.05
2017-10-28T11:51:04.661Z,10.93
2017-10-28T11:52:04.625Z,10.94
2017-10-28T11:53:04.587Z,10.94
2017-10-28T11:54:04.551Z,10.90
2017-10-28T11:55:04.517Z,10.92
2017-10-28T11:56:04.480Z,10.97
2017-10-28T11:57:04.444Z,11.02
2017-10-28T11:58:04.411Z,11.04
2017-10-28T11:59:04.386Z,11.05
2017-10-28T12:00:04.337Z,11.04
2017-10-28T12:01:04.300Z,11.02
2017-10-28T12:02:04.268Z,11.05
2017-10-28T12:03:04.229Z,11.12
2017-10-28T12:04:04.193Z,11.17
2017-10-28T12:05:04.691Z,11.17
2017-10-28T12:06:04.121Z,11.12
2017-10-28T12:07:04.086Z,11.22
2017-10-28T12:08:04.049Z,11.22
2017-10-28T12:09:04.014Z,11.29
2017-10-28T12:10:03.978Z,11.32
2017-10-28T12:11:03.947Z,11.36
2017-10-28T12:12:03.907Z,11.32
2017-10-28T12:13:03.869Z,11.36
2017-10-28T12:14:03.834Z,11.37
2017-10-28T12:15:03.799Z,11.36
2017-10-28T12:16:03.766Z,11.36
2017-10-28T12:17:03.730Z,11.47
2017-10-28T12:18:03.694Z,11.50
2017-10-28T12:19:03.660Z,11.54
2017-10-28T12:20:03.624Z,11.57
2017-10-28T12:21:03.588Z,11.59
2017-10-28T12:22:03.552Z,11.66
2017-10-28T12:23:03.517Z,11.66
2017-10-28T12:24:03.481Z,11.68
2017-10-28T12:25:03.446Z,11.57
2017-10-28T12:26:03.411Z,11.59
2017-10-28T12:27:03.376Z,11.55
2017-10-28T12:28:03.344Z,11.54
2017-10-28T12:29:03.308Z,11.54
2017-10-28T12:30:03.272Z,11.52
2017-10-28T12:31:03.237Z,11.54
2017-10-28T12:32:03.202Z,11.47
2017-10-28T12:33:03.167Z,11.48
2017-10-28T12:34:03.131Z,11.54
2017-10-28T12:35:03.098Z,11.59
2017-10-28T12:36:03.062Z,11.50
2017-10-28T12:37:03.280Z,11.45
2017-10-28T12:38:02.995Z,11.55
2017-10-28T12:39:02.956Z,11.62
2017-10-28T12:40:02.920Z,11.65
2017-10-28T12:41:02.981Z,11.60
2017-10-28T12:42:02.851Z,11.59
2017-10-28T12:43:02.817Z,11.63
2017-10-28T12:44:02.782Z,11.55
2017-10-28T12:45:02.745Z,11.55
2017-10-28T12:46:02.712Z,11.55
2017-10-28T12:47:02.676Z,11.57
2017-10-28T12:48:02.640Z,11.55
2017-10-28T12:49:02.605Z,11.48
2017-10-28T12:50:02.571Z,11.55
2017-10-28T12:51:02.537Z,11.59
2017-10-28T12:52:02.502Z,11.54
2017-10-28T12:53:02.468Z,11.62
2017-10-28T12:54:02.430Z,11.59
2017-10-28T12:55:02.396Z,11.57
2017-10-28T12:56:02.361Z,11.60
2017-10-28T12:57:02.325Z,11.57
2017-10-28T12:58:02.291Z,11.55
2017-10-28T12:59:02.255Z,11.51
2017-10-28T13:00:02.220Z,11.50
2017-10-28T13:01:02.186Z,11.50
2017-10-28T13:02:02.151Z,11.41
2017-10-28T13:03:02.115Z,11.45
2017-10-28T13:04:02.078Z,11.33